createdAt,value
2018-08-16T00:01:14.387Z,17.60
2018-08-16T00:03:42.933Z,17.70
2018-08-16T00:06:10.465Z,17.60
2018-08-16T00:08:38.007Z,17.60
2018-08-16T00:11:05.633Z,17.60
2018-08-16T00:13:33.118Z,17.50
2018-08-16T00:16:00.665Z,17.60
2018-08-16T00:18:28.216Z,17.50
2018-08-16T00:20:55.702Z,17.50
2018-08-16T00:23:23.269Z,17.50
2018-08-16T00:25:50.778Z,17.50
2018-08-16T00:28:18.339Z,17.50
2018-08-16T00:30:45.885Z,17.50
2018-08-16T00:33:13.409Z,17.50
2018-08-16T00:35:40.895Z,17.40
2018-08-16T00:38:08.401Z,17.50
2018-08-16T00:40:35.903Z,17.50
2018-08-16T00:43:03.418Z,17.40
2018-08-16T00:45:30.947Z,17.40
2018-08-16T00:47:58.491Z,17.40
2018-08-16T00:50:26.026Z,17.40
2018-08-16T00:52:53.576Z,17.40
2018-08-16T00:55:21.159Z,17.30
2018-08-16T00:57:48.710Z,17.40
2018-08-16T01:00:16.858Z,17.40
2018-08-16T01:02:44.761Z,17.30
2018-08-16T01:05:12.750Z,17.30
2018-08-16T01:07:40.366Z,17.40
2018-08-16T01:10:09.481Z,17.40
2018-08-16T01:12:37.016Z,17.40
2018-08-16T01:15:06.161Z,17.40
2018-08-16T01:17:33.667Z,17.40
2018-08-16T01:20:01.227Z,17.50
2018-08-16T01:22:28.723Z,17.50
2018-08-16T01:24:56.281Z,17.60
2018-08-16T01:27:23.799Z,17.60
2018-08-16T01:29:51.289Z,17.60
2018-08-16T01:32:18.839Z,17.70
2018-08-16T01:34:46.388Z,17.70
2018-08-16T01:37:13.897Z,17.70
2018-08-16T01:39:41.403Z,17.70
2018-08-16T01:42:08.953Z,17.70
2018-08-16T01:44:36.471Z,17.70
2018-08-16T01:47:03.994Z,17.70
2018-08-16T01:49:37.495Z,17.60
2018-08-16T01:52:05.241Z,17.60
2018-08-16T01:54:32.995Z,17.60
2018-08-16T01:57:01.190Z,17.60
2018-08-16T01:59:28.768Z,17.60
2018-08-16T02:01:56.398Z,17.60
2018-08-16T02:04:23.905Z,17.60
2018-08-16T02:06:51.990Z,17.60
2018-08-16T02:09:20.316Z,17.50
2018-08-16T02:11:47.901Z,17.50
2018-08-16T02:14:15.418Z,17.50
2018-08-16T02:16:42.964Z,17.50
2018-08-16T02:19:10.488Z,17.50
2018-08-16T02:21:38.009Z,17.50
2018-08-16T02:24:05.623Z,17.50
2018-08-16T02:26:33.180Z,17.50
2018-08-16T02:29:00.870Z,17.50
2018-08-16T02:31:28.366Z,17.50
2018-08-16T02:33:56.188Z,17.60
2018-08-16T02:36:24.181Z,17.60
2018-08-16T02:38:51.679Z,17.70
2018-08-16T02:41:19.247Z,17.70
2018-08-16T02:43:46.783Z,17.80
2018-08-16T02:46:14.448Z,17.80
2018-08-16T02:48:41.980Z,17.90
2018-08-16T02:51:09.715Z,17.90
2018-08-16T02:53:37.244Z,18.00
2018-08-16T02:56:04.796Z,18.00
2018-08-16T02:58:32.503Z,18.00
2018-08-16T03:01:00.087Z,18.10
2018-08-16T03:03:27.584Z,18.10
2018-08-16T03:05:55.076Z,18.10
2018-08-16T03:08:22.574Z,18.10
2018-08-16T03:10:50.116Z,18.00
2018-08-16T03:13:17.674Z,18.00
2018-08-16T03:15:45.207Z,18.00
2018-08-16T03:18:12.735Z,18.00
2018-08-16T03:20:40.265Z,18.00
2018-08-16T03:23:08.074Z,18.00
2018-08-16T03:25:35.607Z,18.00
2018-08-16T03:28:03.127Z,18.00
2018-08-16T03:30:30.658Z,18.00
2018-08-16T03:32:58.188Z,18.00
2018-08-16T03:35:25.847Z,17.90
2018-08-16T03:37:53.252Z,17.90
2018-08-16T03:40:20.799Z,17.80
2018-08-16T03:42:48.492Z,17.80
2018-08-16T03:45:16.008Z,17.70
2018-08-16T03:47:43.780Z,17.70
2018-08-16T03:50:11.324Z,17.60
2018-08-16T03:52:38.820Z,17.60
2018-08-16T03:55:06.424Z,17.60
2018-08-16T03:57:33.998Z,17.60
2018-08-16T04:00:01.584Z,17.50
2018-08-16T04:02:29.102Z,17.50
2018-08-16T04:04:56.602Z,17.50
2018-08-16T04:07:24.362Z,17.40
2018-08-16T04:09:52.060Z,17.50
2018-08-16T04:12:19.590Z,17.40
2018-08-16T04:14:47.053Z,17.50
2018-08-16T04:17:14.554Z,17.50
2018-08-16T04:19:42.068Z,17.50
2018-08-16T04:22:09.589Z,17.50
2018-08-16T04:24:37.110Z,17.50
2018-08-16T04:27:04.614Z,17.60
2018-08-16T04:29:32.100Z,17.60
2018-08-16T04:31:59.656Z,17.60
2018-08-16T04:34:27.177Z,17.70
2018-08-16T04:36:54.714Z,17.60
2018-08-16T04:39:22.280Z,17.60
2018-08-16T04:41:49.875Z,17.70
2018-08-16T04:44:17.300Z,17.70
2018-08-16T04:46:44.834Z,17.60
2018-08-16T04:49:12.321Z,17.60
2018-08-16T04:51:39.832Z,17.60
2018-08-16T04:54:07.298Z,17.60
2018-08-16T04:56:34.854Z,17.60
2018-08-16T04:59:02.411Z,17.50
2018-08-16T05:01:29.924Z,17.50
2018-08-16T05:03:57.460Z,17.50
2018-08-16T05:06:24.948Z,17.60
2018-08-16T05:08:52.492Z,17.60
2018-08-16T05:11:20.051Z,17.70
2018-08-16T05:13:47.541Z,17.70
2018-08-16T05:16:15.084Z,17.70
2018-08-16T05:18:42.591Z,17.80
2018-08-16T05:21:10.115Z,17.80
2018-08-16T05:23:37.604Z,17.90
2018-08-16T05:26:05.230Z,17.90
2018-08-16T05:28:32.746Z,17.90
2018-08-16T05:31:00.264Z,17.90
2018-08-16T05:33:27.791Z,18.00
2018-08-16T05:35:55.353Z,18.00
2018-08-16T05:38:22.868Z,18.00
2018-08-16T05:40:50.424Z,18.00
2018-08-16T05:43:18.032Z,18.10
2018-08-16T05:45:45.594Z,18.20
2018-08-16T05:48:13.126Z,18.20
2018-08-16T05:50:40.717Z,18.20
2018-08-16T05:53:08.162Z,18.20
2018-08-16T05:55:35.711Z,18.20
2018-08-16T05:58:03.281Z,18.30
2018-08-16T06:00:30.786Z,18.30
2018-08-16T06:02:58.322Z,18.30
2018-08-16T06:05:25.900Z,18.30
2018-08-16T06:07:53.358Z,18.30
2018-08-16T06:10:20.969Z,18.30
2018-08-16T06:12:48.495Z,18.40
2018-08-16T06:15:16.008Z,18.40
2018-08-16T06:17:43.642Z,18.50
2018-08-16T06:20:11.941Z,18.50
2018-08-16T06:22:39.868Z,18.50
2018-08-16T06:25:09.295Z,18.50
2018-08-16T06:27:36.779Z,18.50
2018-08-16T06:30:07.371Z,18.60
2018-08-16T06:32:34.894Z,18.70
2018-08-16T06:35:02.539Z,18.70
2018-08-16T06:37:30.190Z,18.70
2018-08-16T06:39:57.772Z,18.80
2018-08-16T06:42:25.298Z,18.80
2018-08-16T06:44:52.805Z,18.90
2018-08-16T06:47:20.378Z,19.00
2018-08-16T06:49:47.893Z,19.00
2018-08-16T06:52:15.399Z,19.10
2018-08-16T06:54:42.965Z,19.10
2018-08-16T06:57:10.501Z,19.20
2018-08-16T06:59:37.993Z,19.20
2018-08-16T07:02:05.835Z,19.30
2018-08-16T07:04:33.417Z,19.40
2018-08-16T07:07:00.972Z,19.40
2018-08-16T07:09:28.468Z,19.40
2018-08-16T07:11:55.989Z,19.50
2018-08-16T07:14:23.543Z,19.60
2018-08-16T07:16:51.114Z,19.70
2018-08-16T07:19:18.627Z,19.70
2018-08-16T07:21:46.218Z,19.80
2018-08-16T07:24:13.774Z,19.90
2018-08-16T07:26:41.336Z,20.00
2018-08-16T07:29:08.948Z,20.00
2018-08-16T07:31:36.597Z,20.10
2018-08-16T07:34:04.297Z,20.20
2018-08-16T07:36:31.822Z,20.30
2018-08-16T07:38:59.427Z,20.40
2018-08-16T07:41:26.957Z,20.40
2018-08-16T07:43:54.484Z,20.40
2018-08-16T07:46:22.133Z,20.40
2018-08-16T07:48:49.603Z,20.40
2018-08-16T07:51:17.243Z,20.40
2018-08-16T07:53:44.751Z,20.30
2018-08-16T07:56:12.339Z,20.50
2018-08-16T07:58:39.898Z,20.70
2018-08-16T08:01:07.551Z,20.60
2018-08-16T08:03:35.106Z,20.80
2018-08-16T08:06:02.668Z,20.80
2018-08-16T08:08:30.219Z,21.00
2018-08-16T08:10:57.766Z,21.00
2018-08-16T08:13:25.394Z,21.10
2018-08-16T08:15:52.958Z,21.00
2018-08-16T08:18:27.488Z,21.10
2018-08-16T08:20:55.018Z,21.30
2018-08-16T08:23:22.548Z,21.40
2018-08-16T08:28:28.967Z,21.50
2018-08-16T08:30:56.551Z,21.50
2018-08-16T08:33:24.097Z,21.50
2018-08-16T08:36:03.312Z,21.50
2018-08-16T08:38:31.016Z,21.70
2018-08-16T08:40:58.559Z,21.80
2018-08-16T08:43:37.377Z,21.80
2018-08-16T08:46:04.980Z,21.90
2018-08-16T08:48:32.487Z,21.90
2018-08-16T08:51:00.034Z,21.90
2018-08-16T08:54:42.661Z,22.00
2018-08-16T08:57:21.874Z,22.10
2018-08-16T08:59:53.600Z,22.20
2018-08-16T09:02:21.178Z,22.20
2018-08-16T09:04:48.824Z,22.20
2018-08-16T09:07:17.387Z,22.10
2018-08-16T09:11:00.789Z,22.10
2018-08-16T09:13:39.858Z,22.10
2018-08-16T09:16:11.068Z,22.10
2018-08-16T09:18:38.603Z,22.10
2018-08-16T09:21:08.276Z,21.90
2018-08-16T09:23:36.201Z,21.90
2018-08-16T09:26:09.325Z,21.90
2018-08-16T09:28:36.981Z,22.00
2018-08-16T09:31:16.038Z,22.10
2018-08-16T09:33:54.993Z,22.20
2018-08-16T09:36:22.536Z,22.20
2018-08-16T09:38:50.062Z,22.30
2018-08-16T09:41:17.693Z,22.30
2018-08-16T09:43:45.285Z,22.40
2018-08-16T09:47:22.179Z,22.60
2018-08-16T09:49:50.645Z,22.70
2018-08-16T09:52:18.979Z,22.70
2018-08-16T09:54:46.950Z,23.20
2018-08-16T09:57:21.542Z,23.40
2018-08-16T09:59:49.317Z,23.70
2018-08-16T10:02:17.818Z,23.60
2018-08-16T10:04:45.401Z,23.80
2018-08-16T10:07:12.988Z,23.80
2018-08-16T10:09:40.591Z,23.80
2018-08-16T10:12:08.337Z,23.80
2018-08-16T10:14:35.973Z,24.10
2018-08-16T10:17:03.593Z,24.20
2018-08-16T10:19:31.236Z,24.10
2018-08-16T10:21:58.827Z,24.10
2018-08-16T10:24:26.495Z,24.40
2018-08-16T10:26:54.215Z,24.70
2018-08-16T10:29:21.978Z,24.90
2018-08-16T10:31:49.655Z,25.00
2018-08-16T10:34:17.243Z,24.80
2018-08-16T10:36:44.875Z,25.10
2018-08-16T10:39:14.869Z,25.20
2018-08-16T10:41:42.752Z,25.30
2018-08-16T10:44:10.915Z,25.40
2018-08-16T10:46:38.715Z,25.50
2018-08-16T10:49:06.347Z,25.50
2018-08-16T10:51:33.929Z,25.80
2018-08-16T10:54:01.569Z,25.70
2018-08-16T10:56:29.170Z,25.60
2018-08-16T10:58:56.750Z,25.70
2018-08-16T11:01:24.365Z,26.00
2018-08-16T11:03:51.945Z,26.20
2018-08-16T11:06:19.507Z,26.00
2018-08-16T11:08:47.063Z,25.70
2018-08-16T11:11:14.598Z,25.70
2018-08-16T11:13:42.108Z,25.70
2018-08-16T11:16:09.639Z,25.80
2018-08-16T11:18:37.165Z,25.90
2018-08-16T11:21:04.761Z,25.70
2018-08-16T11:23:32.275Z,25.50
2018-08-16T11:25:59.799Z,25.60
2018-08-16T11:28:27.295Z,25.60
2018-08-16T11:30:54.799Z,25.70
2018-08-16T11:33:22.399Z,26.30
2018-08-16T11:35:50.057Z,26.30
2018-08-16T11:38:17.578Z,26.50
2018-08-16T11:40:45.290Z,26.60
2018-08-16T11:43:12.900Z,26.70
2018-08-16T11:45:40.381Z,26.80
2018-08-16T11:48:07.964Z,27.20
2018-08-16T11:50:35.587Z,27.20
2018-08-16T11:53:03.132Z,27.50
2018-08-16T11:55:30.763Z,27.70
2018-08-16T11:57:58.253Z,27.80
2018-08-16T12:00:25.831Z,27.90
2018-08-16T12:02:53.505Z,27.60
2018-08-16T12:05:21.059Z,27.60
2018-08-16T12:07:48.667Z,27.60
2018-08-16T12:10:16.304Z,27.50
2018-08-16T12:12:43.795Z,27.60
2018-08-16T12:15:11.452Z,27.80
2018-08-16T12:17:39.074Z,28.00
2018-08-16T12:20:07.527Z,28.40
2018-08-16T12:22:35.123Z,28.30
2018-08-16T12:25:03.484Z,28.20
2018-08-16T12:27:31.589Z,28.50
2018-08-16T12:29:59.111Z,28.40
2018-08-16T12:32:26.684Z,28.80
2018-08-16T12:34:54.421Z,29.10
2018-08-16T12:37:21.955Z,28.70
2018-08-16T12:39:49.806Z,28.80
2018-08-16T12:42:17.392Z,28.60
2018-08-16T12:44:44.856Z,28.90
2018-08-16T12:47:12.423Z,28.90
2018-08-16T12:49:39.939Z,29.40
2018-08-16T12:52:07.694Z,29.90
2018-08-16T12:54:35.253Z,29.30
2018-08-16T12:57:02.816Z,28.90
2018-08-16T12:59:30.350Z,29.00
2018-08-16T13:01:57.968Z,29.40
2018-08-16T13:04:25.508Z,29.70
2018-08-16T13:06:53.111Z,29.60
2018-08-16T13:09:20.642Z,29.30
2018-08-16T13:11:48.150Z,29.60
2018-08-16T13:14:15.727Z,30.00
2018-08-16T13:16:43.270Z,30.10
2018-08-16T13:19:10.962Z,30.40
2018-08-16T13:21:38.397Z,30.80
2018-08-16T13:24:05.996Z,30.90
2018-08-16T13:26:33.556Z,30.90
2018-08-16T13:29:01.082Z,30.80
2018-08-16T13:31:28.673Z,31.10
2018-08-16T13:33:56.288Z,31.20
2018-08-16T13:36:23.862Z,31.10
2018-08-16T13:38:51.461Z,31.40
2018-08-16T13:41:21.445Z,31.80
2018-08-16T13:43:46.548Z,31.70
2018-08-16T13:46:14.177Z,31.80
2018-08-16T13:48:41.801Z,32.00
2018-08-16T13:51:09.307Z,31.30
2018-08-16T13:53:36.842Z,31.20
2018-08-16T13:56:04.437Z,31.70
2018-08-16T13:58:31.971Z,32.10
2018-08-16T14:00:59.542Z,32.50
2018-08-16T14:03:27.138Z,32.50
2018-08-16T14:05:54.697Z,32.80
2018-08-16T14:08:22.214Z,32.80
2018-08-16T14:10:50.824Z,33.20
2018-08-16T14:13:19.022Z,33.00
2018-08-16T14:15:46.577Z,33.40
2018-08-16T14:18:14.170Z,32.90
2018-08-16T14:20:41.722Z,33.10
2018-08-16T14:23:09.562Z,33.30
2018-08-16T14:25:37.147Z,33.20
2018-08-16T14:28:04.810Z,33.00
2018-08-16T14:30:32.322Z,33.30
2018-08-16T14:32:59.828Z,33.60
2018-08-16T14:35:27.394Z,34.20
2018-08-16T14:37:54.929Z,34.00
2018-08-16T14:40:22.897Z,34.00
2018-08-16T14:42:50.660Z,34.00
2018-08-16T14:45:18.195Z,33.70
2018-08-16T14:47:45.717Z,33.70
2018-08-16T14:50:13.261Z,34.00
2018-08-16T14:52:40.866Z,34.30
2018-08-16T14:55:08.427Z,34.60
2018-08-16T14:57:35.977Z,34.60
2018-08-16T15:00:03.831Z,35.10
2018-08-16T15:02:31.340Z,34.50
2018-08-16T15:04:58.880Z,33.80
2018-08-16T15:07:26.497Z,33.30
2018-08-16T15:09:54.033Z,32.80
2018-08-16T15:12:21.544Z,32.70
2018-08-16T15:14:49.081Z,32.70
2018-08-16T15:17:16.645Z,32.90
2018-08-16T15:19:44.213Z,32.50
2018-08-16T15:22:11.723Z,32.10
2018-08-16T15:24:39.237Z,32.30
2018-08-16T15:27:06.796Z,32.30
2018-08-16T15:29:34.313Z,31.90
2018-08-16T15:32:01.891Z,32.40
2018-08-16T15:34:29.426Z,32.80
2018-08-16T15:36:56.922Z,32.90
2018-08-16T15:39:24.621Z,32.20
2018-08-16T15:41:52.177Z,31.90
2018-08-16T15:44:19.663Z,31.80
2018-08-16T15:46:47.203Z,31.60
2018-08-16T15:49:14.713Z,31.40
2018-08-16T15:51:42.282Z,31.30
2018-08-16T15:54:09.837Z,31.30
2018-08-16T15:56:37.416Z,31.40
2018-08-16T15:59:05.636Z,31.00
2018-08-16T16:01:33.211Z,30.70
2018-08-16T16:04:00.780Z,30.40
2018-08-16T16:06:28.378Z,30.40
2018-08-16T16:08:55.965Z,30.70
2018-08-16T16:11:23.513Z,31.30
2018-08-16T16:13:51.106Z,31.50
2018-08-16T16:16:18.668Z,31.80
2018-08-16T16:18:46.203Z,32.10
2018-08-16T16:21:13.709Z,31.50
2018-08-16T16:23:41.237Z,30.90
2018-08-16T16:26:08.760Z,30.60
2018-08-16T16:28:36.285Z,30.30
2018-08-16T16:31:03.950Z,29.90
2018-08-16T16:33:31.500Z,29.80
2018-08-16T16:35:59.021Z,29.60
2018-08-16T16:38:26.677Z,29.80
2018-08-16T16:40:54.173Z,29.40
2018-08-16T16:43:21.694Z,29.40
2018-08-16T16:45:49.241Z,29.90
2018-08-16T16:48:16.785Z,30.50
2018-08-16T16:50:44.289Z,31.00
2018-08-16T16:53:11.837Z,30.90
2018-08-16T16:55:39.339Z,30.70
2018-08-16T16:58:06.911Z,30.60
2018-08-16T17:00:34.483Z,30.40
2018-08-16T17:03:02.015Z,29.80
2018-08-16T17:05:29.566Z,29.40
2018-08-16T17:07:57.135Z,29.20
2018-08-16T17:10:25.637Z,29.20
2018-08-16T17:12:53.221Z,29.20
2018-08-16T17:15:20.830Z,29.10
2018-08-16T17:17:48.379Z,29.00
2018-08-16T17:20:16.524Z,29.20
2018-08-16T17:22:44.061Z,29.50
2018-08-16T17:25:11.579Z,29.60
2018-08-16T17:27:39.301Z,29.60
2018-08-16T17:30:07.379Z,29.80
2018-08-16T17:32:34.908Z,29.80
2018-08-16T17:35:02.446Z,29.10
2018-08-16T17:37:29.968Z,28.60
2018-08-16T17:39:57.469Z,28.30
2018-08-16T17:42:25.010Z,28.00
2018-08-16T17:44:52.564Z,27.90
2018-08-16T17:47:20.115Z,27.70
2018-08-16T17:49:47.692Z,27.50
2018-08-16T17:52:15.225Z,27.20
2018-08-16T17:54:42.762Z,26.80
2018-08-16T17:57:10.271Z,26.60
2018-08-16T17:59:37.822Z,26.50
2018-08-16T18:02:05.506Z,26.40
2018-08-16T18:04:33.031Z,26.30
2018-08-16T18:07:00.610Z,26.10
2018-08-16T18:09:28.235Z,25.90
2018-08-16T18:11:55.801Z,25.70
2018-08-16T18:14:23.437Z,25.60
2018-08-16T18:16:50.962Z,25.50
2018-08-16T18:19:18.525Z,25.50
2018-08-16T18:21:46.170Z,25.40
2018-08-16T18:24:13.792Z,25.20
2018-08-16T18:26:41.324Z,25.20
2018-08-16T18:29:08.899Z,25.20
2018-08-16T18:31:36.442Z,25.10
2018-08-16T18:34:04.040Z,25.10
2018-08-16T18:36:31.598Z,24.90
2018-08-16T18:38:59.106Z,24.60
2018-08-16T18:41:26.696Z,24.60
2018-08-16T18:43:54.232Z,24.40
2018-08-16T18:46:21.820Z,24.30
2018-08-16T18:48:49.334Z,24.20
2018-08-16T18:51:16.929Z,24.10
2018-08-16T18:53:44.455Z,24.00
2018-08-16T18:56:11.957Z,23.90
2018-08-16T18:58:39.514Z,23.80
2018-08-16T19:01:07.042Z,23.80
2018-08-16T19:03:34.770Z,23.80
2018-08-16T19:06:02.354Z,23.90
2018-08-16T19:08:29.869Z,23.90
2018-08-16T19:10:57.473Z,23.90
2018-08-16T19:13:25.111Z,23.90
2018-08-16T19:15:52.833Z,23.90
2018-08-16T19:18:20.428Z,23.90
2018-08-16T19:20:48.021Z,23.90
2018-08-16T19:23:15.618Z,23.80
2018-08-16T19:25:43.555Z,23.80
2018-08-16T19:28:11.212Z,23.70
2018-08-16T19:30:38.865Z,23.70
2018-08-16T19:33:06.706Z,23.60
2018-08-16T19:35:34.513Z,23.60
2018-08-16T19:38:02.229Z,23.50
2018-08-16T19:40:29.964Z,23.50
2018-08-16T19:42:57.606Z,23.50
2018-08-16T19:45:25.181Z,23.40
2018-08-16T19:47:52.795Z,23.40
2018-08-16T19:50:20.413Z,23.40
2018-08-16T19:52:48.035Z,23.30
2018-08-16T19:55:15.644Z,23.30
2018-08-16T19:57:43.258Z,23.20
2018-08-16T20:00:10.878Z,23.20
2018-08-16T20:02:38.432Z,23.20
2018-08-16T20:05:06.246Z,23.10
2018-08-16T20:07:34.387Z,23.10
2018-08-16T20:10:02.079Z,23.10
2018-08-16T20:12:29.696Z,23.10
2018-08-16T20:14:57.300Z,23.00
2018-08-16T20:17:24.895Z,22.90
2018-08-16T20:19:52.571Z,22.90
2018-08-16T20:22:20.495Z,22.80
2018-08-16T20:24:48.596Z,22.80
2018-08-16T20:27:16.387Z,22.90
2018-08-16T20:29:44.879Z,22.80
2018-08-16T20:32:12.467Z,22.70
2018-08-16T20:34:40.060Z,22.60
2018-08-16T20:37:07.701Z,22.50
2018-08-16T20:39:36.470Z,22.40
2018-08-16T20:42:04.087Z,22.40
2018-08-16T20:44:31.771Z,22.30
2018-08-16T20:46:59.370Z,22.40
2018-08-16T20:49:26.909Z,22.30
2018-08-16T20:51:54.433Z,22.30
2018-08-16T20:54:21.982Z,22.20
2018-08-16T20:56:49.522Z,22.00
2018-08-16T20:59:17.400Z,21.70
2018-08-16T21:01:44.926Z,21.40
2018-08-16T21:04:12.445Z,21.10
2018-08-16T21:06:40.004Z,21.00
2018-08-16T21:09:08.684Z,21.00
2018-08-16T21:11:36.231Z,21.00
2018-08-16T21:14:03.856Z,20.80
2018-08-16T21:16:31.459Z,20.70
2018-08-16T21:18:58.976Z,20.60
2018-08-16T21:21:26.595Z,20.60
2018-08-16T21:23:54.115Z,20.50
2018-08-16T21:26:21.632Z,20.50
2018-08-16T21:28:49.211Z,20.50
2018-08-16T21:31:16.776Z,20.40
2018-08-16T21:33:44.309Z,20.30
2018-08-16T21:36:11.814Z,20.00
2018-08-16T21:38:39.357Z,19.90
2018-08-16T21:41:07.116Z,19.90
2018-08-16T21:43:34.621Z,19.80
2018-08-16T21:46:02.179Z,19.70
2018-08-16T21:48:29.740Z,19.70
2018-08-16T21:50:57.305Z,19.60
2018-08-16T21:53:24.818Z,19.70
2018-08-16T21:55:52.352Z,19.70
2018-08-16T21:58:19.909Z,19.70
2018-08-16T22:00:51.801Z,19.70
2018-08-16T22:03:20.324Z,19.70
2018-08-16T22:05:59.949Z,19.60
2018-08-16T22:08:37.705Z,19.50
2018-08-16T22:11:06.021Z,19.50
2018-08-16T22:13:33.536Z,19.30
2018-08-16T22:16:01.100Z,19.20
2018-08-16T22:18:28.645Z,19.00
2018-08-16T22:20:56.144Z,18.90
2018-08-16T22:23:23.692Z,18.70
2018-08-16T22:25:51.231Z,18.70
2018-08-16T22:28:18.771Z,18.50
2018-08-16T22:30:46.283Z,18.40
2018-08-16T22:33:13.795Z,18.30
2018-08-16T22:35:41.300Z,18.30
2018-08-16T22:38:08.831Z,18.30
2018-08-16T22:40:36.376Z,18.20
2018-08-16T22:43:03.947Z,18.10
2018-08-16T22:45:31.519Z,18.10
2018-08-16T22:47:59.039Z,18.20
2018-08-16T22:50:26.566Z,18.20
2018-08-16T22:52:54.068Z,18.40
2018-08-16T22:55:21.560Z,18.50
2018-08-16T22:57:49.077Z,18.60
2018-08-16T23:00:16.591Z,18.50
2018-08-16T23:02:44.105Z,18.40
2018-08-16T23:05:11.688Z,18.40
2018-08-16T23:07:39.267Z,18.40
2018-08-16T23:10:07.141Z,18.40
2018-08-16T23:12:34.699Z,18.40
2018-08-16T23:15:02.327Z,18.50
2018-08-16T23:17:29.815Z,18.60
2018-08-16T23:19:57.322Z,18.70
2018-08-16T23:22:24.858Z,18.70
2018-08-16T23:24:52.369Z,18.80
2018-08-16T23:27:19.880Z,18.70
2018-08-16T23:29:47.395Z,18.50
2018-08-16T23:32:14.882Z,18.50
2018-08-16T23:34:42.393Z,18.40
2018-08-16T23:37:09.944Z,18.40
2018-08-16T23:39:37.484Z,18.50
2018-08-16T23:42:05.021Z,18.40
2018-08-16T23:44:32.633Z,18.30
2018-08-16T23:47:00.228Z,18.30
2018-08-16T23:49:27.739Z,18.20
2018-08-16T23:51:55.276Z,18.20
2018-08-16T23:54:22.805Z,18.10
2018-08-16T23:56:50.379Z,18.10
2018-08-16T23:59:17.912Z,18.10
